Wolf, WY (82844)

5:02 PM MDT on May 22, 2017 (GMT -0600)
MRPKW4 | | Change Station

Elev 7045 ft 44.64 °N, 107.18 °W | Updated 7 days ago

Partly Cloudy
Partly Cloudy
48.0 °F
Feels Like 48 °F
N
-
Wind Variable Wind from North

Today
High -- | Low -- °F
--% Chance of Precip.
Yesterday
High -- | Low -- °F
Precip. -- in
Pressure 30.16 in
Visibility 10.0 miles
Clouds Few 4000 ft
Mostly Cloudy 6000 ft
Mostly Cloudy 8000 ft
Windchill 48 °F
Dew Point Not available.
Humidity Not available.
Rainfall 0.23 in
Snow Depth Not available.
5:33 AM 8:38 PM
Waning Crescent, 12% visible
METAR KSHR 222253Z AUTO 29008KT 10SM FEW040 BKN060 BKN080 15/06 A3017 RMK AO2 TSB2159E14 SLP211 T01500056
Pressure 30.16 in
Visibility 10.0 miles
Clouds Few 4000 ft
Mostly Cloudy 6000 ft
Mostly Cloudy 8000 ft
Windchill 48 °F
Dew Point Not available.
Humidity Not available.
Rainfall 0.23 in
Snow Depth Not available.
5:33 AM 8:38 PM
Waning Crescent, 12% visible
METAR KSHR 222253Z AUTO 29008KT 10SM FEW040 BKN060 BKN080 15/06 A3017 RMK AO2 TSB2159E14 SLP211 T01500056

Get Severe Weather Alerts

Thanks for signing up!

Be on the lookout for a verification email in your inbox.

You'll start receiving the daily forecast at 6 AM.

×

10-Day Weather Forecast

Almanac

Astronomy

May. 22, 2017 Rise Set
Actual Time
Civil Twilight
Nautical Twilight
Astronomical Twilight
Moon
Length of Visible Light
Length of Day
Tomorrow will be .
, % of the Moon is Illuminated

Today's Extremes

State Highs State Lows

Community

WunderPhotos

Category 6

Welcome to Category 6. This is the collective home for Weather Underground's featured writeups by Dr. Jeff Masters (right), Bob Henson (left), Chris Burt, and other regular contributors.

Nearby

Air Quality

  Air Quality AQ Index Pollutant
Not available.

Snow Depth

Station Depth Elevation

Earthquake Activity

City Distance Mag. Time & Date
Minimum magnitude displayed is 2.5.

Coastal Water Temperatures

Place Temperature

Stations

Nearby Weather Stations

Station Location Temp. Windchill Dew Point Humidity Wind Precip. Elev Updated Type
                   

Watches & Warnings

There are currently no watches in effect.